Time;durP1;ratioP1;P1;durP2;ratioP2;P2;SDS_P1;SDS_P2;PMS_P1;PMS_P2;Temp;Humidity;BMP_temperature;BMP_pressure;BME280_temperature;BME280_humidity;BME280_pressure;Samples;Min_cycle;Max_cycle;Signal;HPM_P1;HPM_P2
2022/07/31 00:01:52;;;;;;;;;;;20.90;62.70;;;;;;5032686;28;20355;-82
2022/07/31 00:04:18;;;;;;;;;;;20.90;62.70;;;;;;5030291;28;20410;-82
2022/07/31 00:06:43;;;;;;;;;;;20.80;63.40;;;;;;5040019;28;19925;-80
2022/07/31 00:09:09;;;;;;;;;;;20.80;62.90;;;;;;5046414;28;19921;-80
2022/07/31 00:11:35;;;;;;;;;;;20.80;62.50;;;;;;5041374;28;19921;-81
2022/07/31 00:14:00;;;;;;;;;;;20.70;63.70;;;;;;5036915;28;19927;-81
2022/07/31 00:16:26;;;;;;;;;;;20.70;63.70;;;;;;5045012;28;19919;-82
2022/07/31 00:18:51;;;;;;;;;;;20.60;63.80;;;;;;5030814;28;19913;-82
2022/07/31 00:21:17;;;;;;;;;;;20.60;64.00;;;;;;5026424;28;19913;-82
2022/07/31 00:23:43;;;;;;;;;;;20.60;63.70;;;;;;5029528;28;19996;-82
2022/07/31 00:28:36;;;;;;;;;;;20.60;63.30;;;;;;5061666;28;20011;-84
2022/07/31 00:31:02;;;;;;;;;;;20.60;63.30;;;;;;5062076;28;20284;-83
2022/07/31 00:33:27;;;;;;;;;;;20.60;63.50;;;;;;5049402;28;19912;-83
2022/07/31 00:35:53;;;;;;;;;;;20.60;63.40;;;;;;5048063;28;19916;-83
2022/07/31 00:38:18;;;;;;;;;;;20.60;63.60;;;;;;5066748;28;20427;-84
2022/07/31 00:40:45;;;;;;;;;;;20.60;63.40;;;;;;5041708;28;19919;-83
2022/07/31 00:43:12;;;;;;;;;;;20.50;64.20;;;;;;5048781;28;19944;-84
2022/07/31 00:45:37;;;;;;;;;;;20.40;64.70;;;;;;5067646;28;19971;-84
2022/07/31 00:48:03;;;;;;;;;;;20.30;65.40;;;;;;5065827;28;19916;-82
2022/07/31 00:50:28;;;;;;;;;;;20.30;65.20;;;;;;5062945;28;19912;-83
2022/07/31 00:52:54;;;;;;;;;;;20.20;65.90;;;;;;5063661;28;19965;-83
2022/07/31 00:55:21;;;;;;;;;;;20.10;66.10;;;;;;5049307;28;19912;-83
2022/07/31 00:57:46;;;;;;;;;;;20.10;66.10;;;;;;5053737;28;19937;-84
2022/07/31 01:00:12;;;;;;;;;;;20.10;65.90;;;;;;5051108;28;19912;-84
2022/07/31 01:02:38;;;;;;;;;;;20.10;65.90;;;;;;5065965;28;19913;-83
2022/07/31 01:05:03;;;;;;;;;;;20.10;65.90;;;;;;5063866;28;19917;-84
2022/07/31 01:07:29;;;;;;;;;;;20.00;67.20;;;;;;5068161;28;19927;-84
2022/07/31 01:09:55;;;;;;;;;;;20.00;67.80;;;;;;5049228;28;19923;-85
2022/07/31 01:12:25;;;;;;;;;;;19.90;67.70;;;;;;5071054;28;19936;-84
2022/07/31 01:14:53;;;;;;;;;;;19.90;68.80;;;;;;5070811;28;20395;-83
2022/07/31 01:17:21;;;;;;;;;;;19.90;69.00;;;;;;5068697;28;19913;-84
2022/07/31 01:19:47;;;;;;;;;;;19.80;69.30;;;;;;5069387;28;19939;-84
2022/07/31 01:22:32;;;;;;;;;;;19.80;70.10;;;;;;5070927;28;19919;-84
2022/07/31 01:25:16;;;;;;;;;;;19.60;69.50;;;;;;5051355;28;20344;-84
2022/07/31 01:27:58;;;;;;;;;;;19.60;70.40;;;;;;5070043;28;19920;-84
2022/07/31 01:30:26;;;;;;;;;;;19.60;70.20;;;;;;5050308;28;19918;-83
2022/07/31 01:32:52;;;;;;;;;;;19.60;69.50;;;;;;5052451;28;20007;-84
2022/07/31 01:35:28;;;;;;;;;;;19.50;69.80;;;;;;5068325;28;19912;-84
2022/07/31 01:37:57;;;;;;;;;;;19.50;69.70;;;;;;5069557;28;19932;-84
2022/07/31 01:40:26;;;;;;;;;;;19.40;69.60;;;;;;5051872;28;19935;-84
2022/07/31 01:43:00;;;;;;;;;;;19.50;69.70;;;;;;5043779;28;20361;-84
2022/07/31 01:45:26;;;;;;;;;;;19.50;69.70;;;;;;5050650;28;19914;-85
2022/07/31 01:47:52;;;;;;;;;;;19.40;69.60;;;;;;5066047;28;19912;-84
2022/07/31 01:50:19;;;;;;;;;;;19.40;69.70;;;;;;5069336;28;19916;-83
2022/07/31 01:52:44;;;;;;;;;;;19.30;69.50;;;;;;5044786;28;20399;-83
2022/07/31 01:55:11;;;;;;;;;;;19.30;69.20;;;;;;5049792;28;20230;-84
2022/07/31 01:57:37;;;;;;;;;;;19.30;68.80;;;;;;5067904;28;19936;-83
2022/07/31 02:00:05;;;;;;;;;;;19.20;69.20;;;;;;5048385;28;19958;-84
2022/07/31 02:02:31;;;;;;;;;;;19.30;69.10;;;;;;5051068;28;19916;-84
2022/07/31 02:04:57;;;;;;;;;;;19.20;69.40;;;;;;5065013;28;19920;-83
2022/07/31 02:07:24;;;;;;;;;;;19.20;69.70;;;;;;5048561;28;19916;-84
2022/07/31 02:09:49;;;;;;;;;;;19.30;69.50;;;;;;5050035;28;19913;-83
2022/07/31 02:12:15;;;;;;;;;;;19.20;69.60;;;;;;5067548;28;19926;-84
2022/07/31 02:14:41;;;;;;;;;;;19.20;69.70;;;;;;5050040;28;20202;-83
2022/07/31 02:17:07;;;;;;;;;;;19.20;69.00;;;;;;5067482;28;19916;-84
2022/07/31 02:19:34;;;;;;;;;;;19.20;69.50;;;;;;5046451;28;20428;-85
2022/07/31 02:22:00;;;;;;;;;;;19.20;69.90;;;;;;5066748;28;19916;-83
2022/07/31 02:24:25;;;;;;;;;;;19.10;70.00;;;;;;5046566;28;20007;-82
2022/07/31 02:26:51;;;;;;;;;;;19.10;69.70;;;;;;5067465;28;20007;-83
2022/07/31 02:29:17;;;;;;;;;;;19.20;69.00;;;;;;5084296;28;19923;-85
2022/07/31 02:31:44;;;;;;;;;;;19.20;69.20;;;;;;5066489;28;19912;-84
2022/07/31 02:34:11;;;;;;;;;;;19.10;69.60;;;;;;5073949;28;19920;-84
2022/07/31 02:36:37;;;;;;;;;;;19.00;69.90;;;;;;5067572;28;19917;-85
2022/07/31 02:39:03;;;;;;;;;;;19.00;70.20;;;;;;5053958;28;19912;-84
2022/07/31 02:41:29;;;;;;;;;;;19.00;70.20;;;;;;5075329;28;20023;-84
2022/07/31 02:43:55;;;;;;;;;;;18.80;70.30;;;;;;5055480;28;19956;-84
2022/07/31 02:46:21;;;;;;;;;;;18.90;70.50;;;;;;5071744;28;19916;-83
2022/07/31 02:48:48;;;;;;;;;;;18.80;70.30;;;;;;5054831;28;19912;-83
2022/07/31 02:51:13;;;;;;;;;;;18.90;70.20;;;;;;5061915;28;20003;-84
2022/07/31 02:53:39;;;;;;;;;;;18.80;70.30;;;;;;5072196;28;19978;-85
2022/07/31 02:56:05;;;;;;;;;;;18.80;70.70;;;;;;5049831;28;20292;-84
2022/07/31 02:58:30;;;;;;;;;;;18.70;70.70;;;;;;5048156;28;19912;-85
2022/07/31 03:01:00;;;;;;;;;;;18.70;70.70;;;;;;5071140;28;20024;-83
2022/07/31 03:03:26;;;;;;;;;;;18.60;70.70;;;;;;5055674;28;19931;-83
2022/07/31 03:05:51;;;;;;;;;;;18.60;70.90;;;;;;5067529;28;19920;-83
2022/07/31 03:08:17;;;;;;;;;;;18.60;70.90;;;;;;5052065;28;19920;-84
2022/07/31 03:10:43;;;;;;;;;;;18.70;70.90;;;;;;5050353;28;19984;-83
2022/07/31 03:13:10;;;;;;;;;;;18.60;71.00;;;;;;5050759;28;19913;-84
2022/07/31 03:15:37;;;;;;;;;;;18.60;71.20;;;;;;5047696;28;20357;-84
2022/07/31 03:18:04;;;;;;;;;;;18.60;71.90;;;;;;5066564;28;19912;-83
2022/07/31 03:20:29;;;;;;;;;;;18.50;71.90;;;;;;5043649;28;19928;-85
2022/07/31 03:22:55;;;;;;;;;;;18.50;72.40;;;;;;5069403;28;19912;-83
2022/07/31 03:25:20;;;;;;;;;;;18.50;72.60;;;;;;5063639;28;19920;-84
2022/07/31 03:27:46;;;;;;;;;;;18.50;72.50;;;;;;5064076;28;20415;-84
2022/07/31 03:30:23;;;;;;;;;;;18.50;73.70;;;;;;5066999;28;19916;-84
2022/07/31 03:32:49;;;;;;;;;;;18.50;73.40;;;;;;5068436;28;20386;-83
2022/07/31 03:35:15;;;;;;;;;;;18.50;73.30;;;;;;5045666;28;20392;-84
2022/07/31 03:37:40;;;;;;;;;;;18.60;73.10;;;;;;5065438;28;19913;-84
2022/07/31 03:40:06;;;;;;;;;;;18.70;72.70;;;;;;5062807;28;19924;-84
2022/07/31 03:42:31;;;;;;;;;;;18.70;72.60;;;;;;5051058;28;19924;-84
2022/07/31 03:44:57;;;;;;;;;;;18.80;72.20;;;;;;5064614;28;19921;-83
2022/07/31 03:47:22;;;;;;;;;;;18.90;71.60;;;;;;5047569;28;20003;-84
2022/07/31 03:49:48;;;;;;;;;;;18.90;71.80;;;;;;5044836;28;20011;-84
2022/07/31 03:52:13;;;;;;;;;;;18.90;71.90;;;;;;5046923;28;20003;-84
2022/07/31 03:54:39;;;;;;;;;;;18.80;71.80;;;;;;5052080;28;19912;-85
2022/07/31 03:57:06;;;;;;;;;;;18.80;71.70;;;;;;5053040;28;19916;-83
2022/07/31 03:59:33;;;;;;;;;;;18.80;71.80;;;;;;5045800;28;19921;-82
2022/07/31 04:01:59;;;;;;;;;;;18.70;71.70;;;;;;5046202;28;20053;-82
2022/07/31 04:04:24;;;;;;;;;;;18.70;72.00;;;;;;5046925;28;20392;-84
2022/07/31 04:06:50;;;;;;;;;;;18.80;71.80;;;;;;5068965;28;20436;-83
2022/07/31 04:09:15;;;;;;;;;;;18.80;71.80;;;;;;5065613;28;19917;-83
2022/07/31 04:11:41;;;;;;;;;;;18.80;71.80;;;;;;5067989;28;19921;-84
2022/07/31 04:14:06;;;;;;;;;;;18.80;71.80;;;;;;5053395;28;20407;-84
2022/07/31 04:16:32;;;;;;;;;;;18.90;71.90;;;;;;5053876;28;19917;-83
2022/07/31 04:18:57;;;;;;;;;;;18.90;72.10;;;;;;5069873;28;20007;-82
2022/07/31 04:21:23;;;;;;;;;;;18.90;71.80;;;;;;5053717;28;19912;-84
2022/07/31 04:23:48;;;;;;;;;;;19.00;71.60;;;;;;5069921;28;19916;-84
2022/07/31 04:26:14;;;;;;;;;;;19.00;71.80;;;;;;5056462;28;20003;-85
2022/07/31 04:28:39;;;;;;;;;;;19.00;72.20;;;;;;5051391;28;19921;-83
2022/07/31 04:31:05;;;;;;;;;;;19.00;72.30;;;;;;5066678;28;19913;-83
2022/07/31 04:33:30;;;;;;;;;;;19.00;71.30;;;;;;5053810;28;20002;-83
2022/07/31 04:35:55;;;;;;;;;;;19.00;70.90;;;;;;5051772;28;19917;-83
2022/07/31 04:38:21;;;;;;;;;;;19.10;69.20;;;;;;5053735;28;20051;-83
2022/07/31 04:40:47;;;;;;;;;;;19.20;68.90;;;;;;5052021;28;19919;-84
2022/07/31 04:43:13;;;;;;;;;;;19.30;68.00;;;;;;5055737;28;20257;-84
2022/07/31 04:45:38;;;;;;;;;;;19.40;66.70;;;;;;5072250;28;19932;-85
2022/07/31 04:48:04;;;;;;;;;;;19.50;66.80;;;;;;5053679;28;19939;-84
2022/07/31 04:50:30;;;;;;;;;;;19.60;65.80;;;;;;5052385;28;19920;-84
2022/07/31 04:52:55;;;;;;;;;;;19.70;65.50;;;;;;5074036;28;19920;-84
2022/07/31 04:55:21;;;;;;;;;;;19.80;65.30;;;;;;5054410;28;19919;-85
2022/07/31 04:57:46;;;;;;;;;;;19.80;66.50;;;;;;5069961;28;19917;-84
2022/07/31 05:00:12;;;;;;;;;;;19.80;65.20;;;;;;5054802;28;20392;-84
2022/07/31 05:02:37;;;;;;;;;;;19.80;65.90;;;;;;5069439;28;19920;-83
2022/07/31 05:05:03;;;;;;;;;;;19.80;66.10;;;;;;5069144;28;19924;-84
2022/07/31 05:07:28;;;;;;;;;;;20.00;66.30;;;;;;5064987;28;20511;-84
2022/07/31 05:09:54;;;;;;;;;;;20.00;66.20;;;;;;5050532;28;19919;-84
2022/07/31 05:12:19;;;;;;;;;;;20.00;66.60;;;;;;5051540;28;21163;-83
2022/07/31 05:14:45;;;;;;;;;;;20.00;66.70;;;;;;5048318;28;19959;-84
2022/07/31 05:17:10;;;;;;;;;;;20.10;66.10;;;;;;5072047;28;19927;-84
2022/07/31 05:19:36;;;;;;;;;;;20.10;64.90;;;;;;5054725;28;19917;-84
2022/07/31 05:22:03;;;;;;;;;;;20.10;65.40;;;;;;5055870;28;20449;-84
2022/07/31 05:24:29;;;;;;;;;;;20.10;64.70;;;;;;5074969;28;19917;-85
2022/07/31 05:26:54;;;;;;;;;;;20.20;64.30;;;;;;5052901;28;20373;-84
2022/07/31 05:29:20;;;;;;;;;;;20.30;63.30;;;;;;5067887;28;19913;-85
2022/07/31 05:31:45;;;;;;;;;;;20.40;63.00;;;;;;5052147;28;19916;-84
2022/07/31 05:34:11;;;;;;;;;;;20.50;62.50;;;;;;5066937;28;19917;-85
2022/07/31 05:36:36;;;;;;;;;;;20.50;63.30;;;;;;5048863;28;20300;-83
2022/07/31 05:39:02;;;;;;;;;;;20.60;62.90;;;;;;5051047;28;19912;-84
2022/07/31 05:41:28;;;;;;;;;;;20.60;63.20;;;;;;5050573;28;20025;-83
2022/07/31 05:43:54;;;;;;;;;;;20.60;62.90;;;;;;5048005;28;19976;-83
2022/07/31 05:46:19;;;;;;;;;;;20.60;62.80;;;;;;5051072;28;20012;-83
2022/07/31 05:48:45;;;;;;;;;;;20.60;63.10;;;;;;5051039;28;19966;-84
2022/07/31 05:51:11;;;;;;;;;;;20.60;62.90;;;;;;5064681;28;20373;-83
2022/07/31 05:53:36;;;;;;;;;;;20.70;63.70;;;;;;5069085;28;20176;-84
2022/07/31 05:56:02;;;;;;;;;;;20.70;62.50;;;;;;5067693;28;19991;-82
2022/07/31 05:58:27;;;;;;;;;;;20.80;62.60;;;;;;5073829;28;19963;-84
2022/07/31 06:00:53;;;;;;;;;;;20.90;62.20;;;;;;5057343;28;19920;-84
2022/07/31 06:03:22;;;;;;;;;;;21.10;61.60;;;;;;5051171;28;19919;-84
2022/07/31 06:05:48;;;;;;;;;;;21.10;61.20;;;;;;5052944;28;20567;-84
2022/07/31 06:08:13;;;;;;;;;;;21.10;61.70;;;;;;5047770;28;20368;-85
2022/07/31 06:10:39;;;;;;;;;;;21.20;61.70;;;;;;5064905;28;19912;-83
2022/07/31 06:13:04;;;;;;;;;;;21.20;61.50;;;;;;5049837;28;19916;-83
2022/07/31 06:15:30;;;;;;;;;;;21.20;61.10;;;;;;5048542;28;20388;-85
2022/07/31 06:17:55;;;;;;;;;;;21.20;60.80;;;;;;5049326;28;19975;-83
2022/07/31 06:20:21;;;;;;;;;;;21.30;60.90;;;;;;5066188;28;20388;-84
2022/07/31 06:22:46;;;;;;;;;;;21.30;60.80;;;;;;5064041;28;19913;-83
2022/07/31 06:25:12;;;;;;;;;;;21.30;60.80;;;;;;5045142;28;19921;-83
2022/07/31 06:27:37;;;;;;;;;;;21.50;61.30;;;;;;5067543;28;19916;-83
2022/07/31 06:30:04;;;;;;;;;;;21.60;60.80;;;;;;5064718;28;19920;-84
2022/07/31 06:32:30;;;;;;;;;;;21.60;60.60;;;;;;5066236;28;20574;-83
2022/07/31 06:34:56;;;;;;;;;;;21.60;61.00;;;;;;5047426;28;19920;-84
2022/07/31 06:37:21;;;;;;;;;;;21.70;60.20;;;;;;5064572;28;19989;-83
2022/07/31 06:39:46;;;;;;;;;;;21.80;60.40;;;;;;5052858;28;19912;-83
2022/07/31 06:42:16;;;;;;;;;;;21.90;60.40;;;;;;5072388;28;19916;-81
2022/07/31 06:44:42;;;;;;;;;;;21.90;60.10;;;;;;5053785;28;19959;-82
2022/07/31 06:47:08;;;;;;;;;;;21.90;60.10;;;;;;5052198;28;19920;-83
2022/07/31 06:49:33;;;;;;;;;;;21.80;60.60;;;;;;5048474;28;20385;-82
2022/07/31 06:51:59;;;;;;;;;;;21.80;60.70;;;;;;5053826;28;19956;-83
2022/07/31 06:54:24;;;;;;;;;;;21.90;60.40;;;;;;5051124;28;19984;-82
2022/07/31 06:56:49;;;;;;;;;;;21.90;60.30;;;;;;5068685;28;20338;-81
2022/07/31 06:59:16;;;;;;;;;;;22.00;60.40;;;;;;5054799;28;19923;-83
2022/07/31 07:01:41;;;;;;;;;;;22.10;60.20;;;;;;5046693;28;19931;-83
2022/07/31 07:04:07;;;;;;;;;;;22.10;60.50;;;;;;5071648;28;19931;-83
2022/07/31 07:06:32;;;;;;;;;;;22.20;60.40;;;;;;5071629;28;19916;-83
2022/07/31 07:08:57;;;;;;;;;;;22.30;60.10;;;;;;5051095;28;19913;-83
2022/07/31 07:11:25;;;;;;;;;;;22.20;60.40;;;;;;5051352;28;22096;-82
2022/07/31 07:13:50;;;;;;;;;;;22.30;60.20;;;;;;5069607;28;19971;-82
2022/07/31 07:16:16;;;;;;;;;;;22.20;60.20;;;;;;5053476;28;19912;-83
2022/07/31 07:18:42;;;;;;;;;;;22.10;60.90;;;;;;5069915;28;19920;-83
2022/07/31 07:21:07;;;;;;;;;;;22.10;61.00;;;;;;5067924;28;19974;-80
2022/07/31 07:23:33;;;;;;;;;;;22.20;61.30;;;;;;5061616;28;19920;-79
2022/07/31 07:25:58;;;;;;;;;;;22.30;60.90;;;;;;5050936;28;19920;-79
2022/07/31 07:28:24;;;;;;;;;;;22.40;60.90;;;;;;5052949;28;19917;-78
2022/07/31 07:30:51;;;;;;;;;;;22.40;60.70;;;;;;5050665;28;19913;-88
2022/07/31 07:33:16;;;;;;;;;;;22.40;60.40;;;;;;5050992;28;19912;-82
2022/07/31 07:35:42;;;;;;;;;;;22.50;60.40;;;;;;5055796;28;19913;-83
2022/07/31 07:38:08;;;;;;;;;;;22.60;60.10;;;;;;5058344;28;19916;-80
2022/07/31 07:40:33;;;;;;;;;;;22.50;60.40;;;;;;5072431;28;20027;-79
2022/07/31 07:42:59;;;;;;;;;;;22.50;60.40;;;;;;5050903;28;19935;-81
2022/07/31 07:45:24;;;;;;;;;;;22.50;60.60;;;;;;5049033;28;19944;-80
2022/07/31 07:47:50;;;;;;;;;;;22.50;60.80;;;;;;5062203;28;20022;-80
2022/07/31 07:50:16;;;;;;;;;;;22.60;60.90;;;;;;5067209;28;19919;-81
2022/07/31 07:52:41;;;;;;;;;;;22.80;60.90;;;;;;5049778;28;19924;-80
2022/07/31 07:55:07;;;;;;;;;;;22.80;61.10;;;;;;5066141;28;19912;-80
2022/07/31 07:57:33;;;;;;;;;;;22.70;61.50;;;;;;5065202;28;20395;-82
2022/07/31 08:00:00;;;;;;;;;;;22.70;60.90;;;;;;5067933;28;19912;-81
2022/07/31 08:02:25;;;;;;;;;;;22.70;61.00;;;;;;5051692;28;19919;-80
2022/07/31 08:04:51;;;;;;;;;;;22.90;61.10;;;;;;5070394;28;19917;-81
2022/07/31 08:07:16;;;;;;;;;;;22.90;61.30;;;;;;5053791;28;19916;-80
2022/07/31 08:09:42;;;;;;;;;;;22.90;60.20;;;;;;5055455;28;19916;-80
2022/07/31 08:12:08;;;;;;;;;;;22.90;60.30;;;;;;5056460;28;20473;-82
2022/07/31 08:14:33;;;;;;;;;;;22.70;59.30;;;;;;5072776;28;19962;-81
2022/07/31 08:16:59;;;;;;;;;;;22.70;58.60;;;;;;5072472;28;19971;-81
2022/07/31 08:19:25;;;;;;;;;;;22.70;58.50;;;;;;5071310;28;19912;-82
2022/07/31 08:21:50;;;;;;;;;;;22.80;58.10;;;;;;5073317;28;20004;-81
2022/07/31 08:24:16;;;;;;;;;;;22.80;58.70;;;;;;5073778;28;19920;-82
2022/07/31 08:29:26;;;;;;;;;;;22.70;59.00;;;;;;5071414;28;19982;-81
2022/07/31 08:31:52;;;;;;;;;;;22.70;58.90;;;;;;5057472;28;20388;-81
2022/07/31 08:34:17;;;;;;;;;;;22.70;59.20;;;;;;5052234;28;20348;-80
2022/07/31 08:36:43;;;;;;;;;;;22.80;59.00;;;;;;5053839;28;20391;-82
2022/07/31 08:39:09;;;;;;;;;;;22.80;59.00;;;;;;5071107;28;19913;-81
2022/07/31 08:41:37;;;;;;;;;;;22.80;59.00;;;;;;5068543;28;20003;-82
2022/07/31 08:44:06;;;;;;;;;;;22.90;59.50;;;;;;5067723;28;19944;-81
2022/07/31 08:46:35;;;;;;;;;;;22.90;59.70;;;;;;5058046;28;19921;-81
2022/07/31 08:49:02;;;;;;;;;;;22.80;60.20;;;;;;5050998;28;19917;-81
2022/07/31 08:51:28;;;;;;;;;;;22.80;60.30;;;;;;5056457;28;19962;-82
2022/07/31 08:53:54;;;;;;;;;;;22.70;60.50;;;;;;5075455;28;19912;-81
2022/07/31 08:56:19;;;;;;;;;;;22.80;60.70;;;;;;5058164;28;20363;-81
2022/07/31 08:58:45;;;;;;;;;;;22.80;60.30;;;;;;5057832;28;20022;-82
2022/07/31 09:01:11;;;;;;;;;;;23.00;60.40;;;;;;5057760;28;19924;-82
2022/07/31 09:03:37;;;;;;;;;;;23.00;60.40;;;;;;5078270;28;19917;-81
2022/07/31 09:06:03;;;;;;;;;;;22.90;59.90;;;;;;5058573;28;19982;-81
2022/07/31 09:08:32;;;;;;;;;;;23.00;60.40;;;;;;5065935;28;19913;-81
2022/07/31 09:11:13;;;;;;;;;;;23.00;60.70;;;;;;5066522;28;19996;-81
2022/07/31 09:13:50;;;;;;;;;;;23.10;60.30;;;;;;5069026;28;19928;-81
2022/07/31 09:16:16;;;;;;;;;;;23.00;60.60;;;;;;5082588;28;19913;-82
2022/07/31 09:18:42;;;;;;;;;;;23.00;61.20;;;;;;5082510;28;20657;-80
2022/07/31 09:21:08;;;;;;;;;;;22.90;61.60;;;;;;5070127;28;20262;-82
2022/07/31 09:23:42;;;;;;;;;;;22.90;62.20;;;;;;5076452;28;19948;-81
2022/07/31 09:26:07;;;;;;;;;;;23.10;61.50;;;;;;5087145;28;20417;-81
2022/07/31 09:28:34;;;;;;;;;;;23.10;61.50;;;;;;5064356;28;19923;-78
2022/07/31 09:31:00;;;;;;;;;;;23.20;61.40;;;;;;5078497;28;19916;-79
2022/07/31 09:33:27;;;;;;;;;;;23.30;61.30;;;;;;5078474;28;19995;-79
2022/07/31 09:35:52;;;;;;;;;;;23.30;61.90;;;;;;5082406;28;19920;-77
2022/07/31 09:38:18;;;;;;;;;;;23.30;61.70;;;;;;5088618;28;19951;-79
2022/07/31 09:40:44;;;;;;;;;;;23.30;62.00;;;;;;5063344;28;19909;-80
2022/07/31 09:43:18;;;;;;;;;;;23.30;62.10;;;;;;5074992;28;19950;-80
2022/07/31 09:45:47;;;;;;;;;;;23.30;62.30;;;;;;5087975;28;19912;-81
2022/07/31 09:48:12;;;;;;;;;;;23.30;62.60;;;;;;5092888;28;19915;-80
2022/07/31 09:50:51;;;;;;;;;;;23.20;62.60;;;;;;5093459;28;19979;-79
2022/07/31 09:53:18;;;;;;;;;;;23.20;62.70;;;;;;5061852;28;19912;-81
2022/07/31 09:55:50;;;;;;;;;;;23.10;63.20;;;;;;5075505;28;19959;-81
2022/07/31 09:58:16;;;;;;;;;;;23.10;63.20;;;;;;5052718;28;19912;-81
2022/07/31 10:00:42;;;;;;;;;;;23.10;63.50;;;;;;5055953;28;20054;-80
2022/07/31 10:03:08;;;;;;;;;;;23.20;63.60;;;;;;5051508;28;19917;-82
2022/07/31 10:05:34;;;;;;;;;;;23.30;63.80;;;;;;5066958;28;19912;-81
2022/07/31 10:08:00;;;;;;;;;;;23.40;62.90;;;;;;5047803;28;20047;-83
2022/07/31 10:10:27;;;;;;;;;;;23.50;62.20;;;;;;5047138;28;19913;-82
2022/07/31 10:12:53;;;;;;;;;;;23.60;62.10;;;;;;5070458;28;19913;-80
2022/07/31 10:15:19;;;;;;;;;;;23.60;61.70;;;;;;5052005;28;19950;-82
2022/07/31 10:17:48;;;;;;;;;;;23.50;61.80;;;;;;5078145;28;20336;-81
2022/07/31 10:20:16;;;;;;;;;;;23.50;62.30;;;;;;5046350;28;20367;-82
2022/07/31 10:22:43;;;;;;;;;;;23.50;62.00;;;;;;5074722;28;19939;-82
2022/07/31 10:25:12;;;;;;;;;;;23.50;62.20;;;;;;5078328;28;19974;-82
2022/07/31 10:27:38;;;;;;;;;;;23.60;62.10;;;;;;5058126;28;19948;-82
2022/07/31 10:30:04;;;;;;;;;;;23.70;61.50;;;;;;5054076;28;19915;-81
2022/07/31 10:32:30;;;;;;;;;;;23.80;61.20;;;;;;5075162;28;19912;-82
2022/07/31 10:34:56;;;;;;;;;;;23.90;60.80;;;;;;5072811;28;19913;-84
2022/07/31 10:37:28;;;;;;;;;;;24.00;60.80;;;;;;5063938;28;19919;-85
2022/07/31 10:40:04;;;;;;;;;;;24.10;60.50;;;;;;5070564;28;19923;-83
2022/07/31 10:42:42;;;;;;;;;;;24.20;59.80;;;;;;5055621;28;19913;-82
2022/07/31 10:45:10;;;;;;;;;;;24.30;60.00;;;;;;5069549;28;19938;-83
2022/07/31 10:47:35;;;;;;;;;;;24.20;59.50;;;;;;5070222;28;20406;-81
2022/07/31 10:50:01;;;;;;;;;;;24.30;60.30;;;;;;5055311;28;19940;-82
2022/07/31 10:52:28;;;;;;;;;;;24.50;59.80;;;;;;5057832;28;19921;-83
2022/07/31 10:54:57;;;;;;;;;;;24.60;58.30;;;;;;5063816;28;19924;-81
2022/07/31 10:57:29;;;;;;;;;;;24.70;57.90;;;;;;5072130;28;20362;-83
2022/07/31 10:59:54;;;;;;;;;;;24.60;57.60;;;;;;5049509;28;19916;-80
2022/07/31 11:02:27;;;;;;;;;;;24.60;57.30;;;;;;5054247;28;19942;-80
2022/07/31 11:04:53;;;;;;;;;;;24.70;58.00;;;;;;5049146;28;19928;-80
2022/07/31 11:07:20;;;;;;;;;;;24.70;56.90;;;;;;5069823;28;19917;-82
2022/07/31 11:09:45;;;;;;;;;;;24.70;57.40;;;;;;5054294;28;19995;-80
2022/07/31 11:12:18;;;;;;;;;;;24.80;57.10;;;;;;5053470;28;19955;-80
2022/07/31 11:14:43;;;;;;;;;;;24.60;57.70;;;;;;5051208;28;19920;-82
2022/07/31 11:17:09;;;;;;;;;;;24.70;58.30;;;;;;5044690;28;19917;-82
2022/07/31 11:19:38;;;;;;;;;;;24.70;57.90;;;;;;5052642;28;20495;-82
2022/07/31 11:22:11;;;;;;;;;;;24.60;58.10;;;;;;5065903;28;19913;-82
2022/07/31 11:24:36;;;;;;;;;;;24.70;58.20;;;;;;5051297;28;19920;-82
2022/07/31 11:27:02;;;;;;;;;;;24.80;58.50;;;;;;5047491;28;19920;-82
2022/07/31 11:29:29;;;;;;;;;;;24.60;58.30;;;;;;5050967;28;20331;-81
2022/07/31 11:31:57;;;;;;;;;;;24.60;58.70;;;;;;5051190;28;19975;-81
2022/07/31 11:34:24;;;;;;;;;;;24.40;58.70;;;;;;5044028;28;19940;-81
2022/07/31 11:36:50;;;;;;;;;;;24.30;58.90;;;;;;5069294;28;19912;-80
2022/07/31 11:39:15;;;;;;;;;;;24.20;59.20;;;;;;5050386;28;20199;-80
2022/07/31 11:41:41;;;;;;;;;;;24.20;59.80;;;;;;5077177;28;19928;-81
2022/07/31 11:44:07;;;;;;;;;;;24.20;60.10;;;;;;5072193;28;19920;-81
2022/07/31 11:46:33;;;;;;;;;;;24.20;59.60;;;;;;5068508;28;19928;-81
2022/07/31 11:48:59;;;;;;;;;;;24.30;59.80;;;;;;5061464;28;19943;-81
2022/07/31 11:51:25;;;;;;;;;;;24.50;59.30;;;;;;5048114;28;20011;-82
2022/07/31 11:53:51;;;;;;;;;;;24.70;58.50;;;;;;5043381;28;19912;-81
2022/07/31 11:56:18;;;;;;;;;;;24.90;58.40;;;;;;5063747;28;20325;-81
2022/07/31 11:58:47;;;;;;;;;;;25.00;58.20;;;;;;5041372;28;20399;-83
2022/07/31 12:01:13;;;;;;;;;;;25.00;58.20;;;;;;5066456;28;19937;-81
2022/07/31 12:03:38;;;;;;;;;;;25.00;58.90;;;;;;5061442;28;19998;-81
2022/07/31 12:06:05;;;;;;;;;;;25.00;58.90;;;;;;5045777;28;19967;-81
2022/07/31 12:08:31;;;;;;;;;;;25.00;58.30;;;;;;5059818;28;19913;-81
2022/07/31 12:10:58;;;;;;;;;;;25.00;59.90;;;;;;5055980;28;19919;-78
2022/07/31 12:13:24;;;;;;;;;;;25.00;60.70;;;;;;5050036;28;20547;-80
2022/07/31 12:15:56;;;;;;;;;;;24.90;61.30;;;;;;5043289;28;19947;-79
2022/07/31 12:18:22;;;;;;;;;;;24.70;61.40;;;;;;5035898;28;19913;-82
2022/07/31 12:20:52;;;;;;;;;;;24.80;59.80;;;;;;5038147;28;19923;-79
2022/07/31 12:23:17;;;;;;;;;;;24.80;60.60;;;;;;5033079;28;19927;-83
2022/07/31 12:25:45;;;;;;;;;;;24.60;60.20;;;;;;5024595;28;20281;-78
2022/07/31 12:28:12;;;;;;;;;;;24.60;60.60;;;;;;5046976;28;20274;-80
2022/07/31 12:30:37;;;;;;;;;;;24.60;62.80;;;;;;5035077;28;19921;-85
2022/07/31 12:33:07;;;;;;;;;;;24.50;62.70;;;;;;5040197;28;20399;-82
2022/07/31 12:35:36;;;;;;;;;;;24.40;63.50;;;;;;5056035;28;20423;-80
2022/07/31 12:38:02;;;;;;;;;;;24.40;62.20;;;;;;5061864;28;19927;-78
2022/07/31 12:40:27;;;;;;;;;;;24.30;62.20;;;;;;5062569;28;20302;-80
2022/07/31 12:42:54;;;;;;;;;;;24.40;61.80;;;;;;5044804;28;20430;-78
2022/07/31 12:45:28;;;;;;;;;;;24.60;60.70;;;;;;5036450;28;20033;-80
2022/07/31 12:47:54;;;;;;;;;;;24.80;59.90;;;;;;5055254;28;19925;-81
2022/07/31 12:50:20;;;;;;;;;;;24.90;59.60;;;;;;5059186;28;19912;-80
2022/07/31 12:52:45;;;;;;;;;;;25.00;60.00;;;;;;5054540;28;20169;-80
2022/07/31 12:55:11;;;;;;;;;;;25.30;59.70;;;;;;5062269;28;19932;-79
2022/07/31 12:57:36;;;;;;;;;;;25.40;58.90;;;;;;5055504;28;20336;-81
2022/07/31 13:00:02;;;;;;;;;;;25.40;58.40;;;;;;5035518;28;19920;-81
2022/07/31 13:02:28;;;;;;;;;;;25.50;57.30;;;;;;5037143;28;19913;-79
2022/07/31 13:04:53;;;;;;;;;;;25.60;57.10;;;;;;5056006;28;20369;-79
2022/07/31 13:07:19;;;;;;;;;;;25.60;56.90;;;;;;5058138;28;20064;-81
2022/07/31 13:09:44;;;;;;;;;;;25.80;56.40;;;;;;5040881;28;19917;-80
2022/07/31 13:12:10;;;;;;;;;;;26.00;56.40;;;;;;5055820;28;19917;-78
2022/07/31 13:14:35;;;;;;;;;;;26.00;56.40;;;;;;5057244;28;19951;-80
2022/07/31 13:17:01;;;;;;;;;;;26.00;55.70;;;;;;5058390;28;19919;-79
2022/07/31 13:19:27;;;;;;;;;;;26.00;55.80;;;;;;5057035;28;19913;-79
2022/07/31 13:21:52;;;;;;;;;;;26.00;56.10;;;;;;5060359;28;19923;-80
2022/07/31 13:24:18;;;;;;;;;;;26.00;56.10;;;;;;5063808;28;19908;-80
2022/07/31 13:26:44;;;;;;;;;;;25.80;56.50;;;;;;5066898;28;19993;-80
2022/07/31 13:29:09;;;;;;;;;;;25.70;57.00;;;;;;5077078;28;19923;-79
2022/07/31 13:31:35;;;;;;;;;;;25.70;57.10;;;;;;5079186;28;19974;-80
2022/07/31 13:34:00;;;;;;;;;;;25.70;56.90;;;;;;5059445;28;19973;-80
2022/07/31 13:36:26;;;;;;;;;;;25.80;56.90;;;;;;5060531;28;19920;-80
2022/07/31 13:38:51;;;;;;;;;;;25.80;56.90;;;;;;5074754;28;19923;-80
2022/07/31 13:41:20;;;;;;;;;;;26.00;56.70;;;;;;5058654;28;19939;-80
2022/07/31 13:43:49;;;;;;;;;;;26.10;56.10;;;;;;5054369;28;19919;-79
2022/07/31 13:46:14;;;;;;;;;;;26.10;56.10;;;;;;5043724;28;19995;-80
2022/07/31 13:48:40;;;;;;;;;;;26.10;55.50;;;;;;5064228;28;19947;-80
2022/07/31 13:51:05;;;;;;;;;;;26.00;56.40;;;;;;5072495;28;19935;-80
2022/07/31 13:53:31;;;;;;;;;;;26.10;56.10;;;;;;5070561;28;20502;-81
2022/07/31 13:55:58;;;;;;;;;;;26.40;55.70;;;;;;5051060;28;19913;-80
2022/07/31 13:58:25;;;;;;;;;;;26.30;55.50;;;;;;5042173;28;20018;-81
2022/07/31 14:00:51;;;;;;;;;;;26.30;55.70;;;;;;5046691;28;19913;-80
2022/07/31 14:03:17;;;;;;;;;;;26.10;56.20;;;;;;5065912;28;19968;-81
2022/07/31 14:05:42;;;;;;;;;;;26.10;56.10;;;;;;5056166;28;19912;-80
2022/07/31 14:08:08;;;;;;;;;;;26.20;56.10;;;;;;5069756;28;20341;-81
2022/07/31 14:10:33;;;;;;;;;;;26.20;56.00;;;;;;5075142;28;19952;-80
2022/07/31 14:12:59;;;;;;;;;;;26.10;56.10;;;;;;5075726;28;19916;-80
2022/07/31 14:15:24;;;;;;;;;;;26.10;56.20;;;;;;5058131;28;19912;-81
2022/07/31 14:17:50;;;;;;;;;;;26.00;56.70;;;;;;5074108;28;20560;-81